createdAt,value
2018-04-25T00:01:42.021Z,11.40
2018-04-25T00:04:08.729Z,11.30
2018-04-25T00:06:34.686Z,11.30
2018-04-25T00:09:00.643Z,11.30
2018-04-25T00:11:27.354Z,11.40
2018-04-25T00:13:53.311Z,11.30
2018-04-25T00:16:19.474Z,11.40
2018-04-25T00:18:46.202Z,11.30
2018-04-25T00:21:12.181Z,11.30
2018-04-25T00:23:38.150Z,11.30
2018-04-25T00:26:04.155Z,11.30
2018-04-25T00:28:30.111Z,11.30
2018-04-25T00:30:56.072Z,11.20
2018-04-25T00:33:22.282Z,11.20
2018-04-25T00:35:48.297Z,11.20
2018-04-25T00:38:15.536Z,11.10
2018-04-25T00:40:41.732Z,11.10
2018-04-25T00:43:07.681Z,11.10
2018-04-25T00:45:33.691Z,11.10
2018-04-25T00:47:59.663Z,11.00
2018-04-25T00:50:25.614Z,11.00
2018-04-25T00:52:52.321Z,10.90
2018-04-25T00:55:18.366Z,10.90
2018-04-25T00:57:44.348Z,10.80
2018-04-25T01:00:11.047Z,10.70
2018-04-25T01:02:37.021Z,10.70
2018-04-25T01:05:02.973Z,10.70
2018-04-25T01:07:29.656Z,10.60
2018-04-25T01:09:55.639Z,10.60
2018-04-25T01:12:21.612Z,10.60
2018-04-25T01:14:47.606Z,10.60
2018-04-25T01:17:13.677Z,10.70
2018-04-25T01:19:39.635Z,10.60
2018-04-25T01:22:05.572Z,10.80
2018-04-25T01:24:31.843Z,10.70
2018-04-25T01:26:59.648Z,10.80
2018-04-25T01:29:25.608Z,10.80
2018-04-25T01:31:52.348Z,10.80
2018-04-25T01:34:21.984Z,10.80
2018-04-25T01:39:53.374Z,10.90
2018-04-25T01:45:46.048Z,10.70
2018-04-25T01:48:30.923Z,10.60
2018-04-25T01:50:56.754Z,10.60
2018-04-25T01:53:35.158Z,10.50
2018-04-25T01:56:13.654Z,10.50
2018-04-25T01:58:52.160Z,10.40
2018-04-25T02:01:18.775Z,10.40
2018-04-25T02:03:52.824Z,10.40
2018-04-25T02:06:18.821Z,10.30
2018-04-25T02:08:44.918Z,10.40
2018-04-25T02:11:10.999Z,10.40
2018-04-25T02:13:36.954Z,10.30
2018-04-25T02:16:02.942Z,10.30
2018-04-25T02:18:34.635Z,10.30
2018-04-25T02:21:00.596Z,10.20
2018-04-25T02:23:26.550Z,10.20
2018-04-25T02:25:53.287Z,10.10
2018-04-25T02:28:19.274Z,10.10
2018-04-25T02:30:45.275Z,10.20
2018-04-25T02:33:12.714Z,10.20
2018-04-25T02:35:38.676Z,10.10
2018-04-25T02:38:05.409Z,10.20
2018-04-25T02:40:31.362Z,10.10
2018-04-25T02:42:57.318Z,10.10
2018-04-25T02:45:24.022Z,10.20
2018-04-25T02:47:49.995Z,10.20
2018-04-25T02:50:16.755Z,10.10
2018-04-25T02:52:42.747Z,10.10
2018-04-25T02:55:08.759Z,10.10
2018-04-25T02:57:35.004Z,10.20
2018-04-25T03:00:00.976Z,10.20
2018-04-25T03:02:26.972Z,10.20
2018-04-25T03:04:52.923Z,10.20
2018-04-25T03:07:18.922Z,10.10
2018-04-25T03:09:44.907Z,10.10
2018-04-25T03:12:10.880Z,10.10
2018-04-25T03:14:37.579Z,10.00
2018-04-25T03:17:03.554Z,9.90
2018-04-25T03:19:29.905Z,10.00
2018-04-25T03:21:56.910Z,9.90
2018-04-25T03:24:22.899Z,9.90
2018-04-25T03:26:49.594Z,9.90
2018-04-25T03:29:15.559Z,9.90
2018-04-25T03:31:41.523Z,9.80
2018-04-25T03:34:08.208Z,9.80
2018-04-25T03:36:34.162Z,9.70
2018-04-25T03:39:00.402Z,9.80
2018-04-25T03:41:26.350Z,9.80
2018-04-25T03:43:52.298Z,9.70
2018-04-25T03:46:18.327Z,9.60
2018-04-25T03:48:44.294Z,9.70
2018-04-25T03:51:10.993Z,9.70
2018-04-25T03:53:37.126Z,9.70
2018-04-25T03:56:03.106Z,9.70
2018-04-25T03:58:29.047Z,9.70
2018-04-25T04:00:55.010Z,9.70
2018-04-25T04:03:20.959Z,9.60
2018-04-25T04:05:46.927Z,9.60
2018-04-25T04:08:12.907Z,9.60
2018-04-25T04:10:38.858Z,9.70
2018-04-25T04:13:04.880Z,9.70
2018-04-25T04:15:30.819Z,9.60
2018-04-25T04:17:56.775Z,9.70
2018-04-25T04:20:22.739Z,9.70
2018-04-25T04:22:48.716Z,9.80
2018-04-25T04:25:15.456Z,9.70
2018-04-25T04:27:42.160Z,9.80
2018-04-25T04:30:08.163Z,9.70
2018-04-25T04:32:34.120Z,9.80
2018-04-25T04:35:00.078Z,9.90
2018-04-25T04:37:26.322Z,9.90
2018-04-25T04:39:52.327Z,9.90
2018-04-25T04:42:18.294Z,9.90
2018-04-25T04:44:44.289Z,10.10
2018-04-25T04:47:10.245Z,10.30
2018-04-25T04:49:36.290Z,10.50
2018-04-25T04:52:02.202Z,10.80
2018-04-25T04:54:28.195Z,11.00
2018-04-25T04:56:54.149Z,11.30
2018-04-25T04:59:20.854Z,11.30
2018-04-25T05:01:46.827Z,11.30
2018-04-25T05:04:13.559Z,11.50
2018-04-25T05:06:39.558Z,11.60
2018-04-25T05:09:05.512Z,12.50
2018-04-25T05:11:31.471Z,12.60
2018-04-25T05:13:57.423Z,13.30
2018-04-25T05:16:24.119Z,13.40
2018-04-25T05:18:50.078Z,13.40
2018-04-25T05:21:16.062Z,14.10
2018-04-25T05:23:42.038Z,15.30
2018-04-25T05:26:08.006Z,17.40
2018-04-25T05:28:34.750Z,19.40
2018-04-25T05:31:00.699Z,19.40
2018-04-25T05:33:27.395Z,17.00
2018-04-25T05:35:53.378Z,17.00
2018-04-25T05:38:19.358Z,16.70
2018-04-25T05:40:45.330Z,16.20
2018-04-25T05:43:11.315Z,16.20
2018-04-25T05:45:37.313Z,16.10
2018-04-25T05:48:03.275Z,16.10
2018-04-25T05:50:29.999Z,15.70
2018-04-25T05:52:55.987Z,15.70
2018-04-25T05:55:21.951Z,15.90
2018-04-25T05:57:47.994Z,16.10
2018-04-25T06:00:13.969Z,16.20
2018-04-25T06:02:39.954Z,16.30
2018-04-25T06:05:05.918Z,16.60
2018-04-25T06:07:31.865Z,17.10
2018-04-25T06:09:58.562Z,17.40
2018-04-25T06:12:24.540Z,17.30
2018-04-25T06:14:50.494Z,17.30
2018-04-25T06:17:17.226Z,19.90
2018-04-25T06:19:43.579Z,20.00
2018-04-25T06:22:10.279Z,22.90
2018-04-25T06:24:36.243Z,22.90
2018-04-25T06:27:02.234Z,25.10
2018-04-25T06:29:28.184Z,26.50
2018-04-25T06:31:54.134Z,28.00
2018-04-25T06:34:20.492Z,29.40
2018-04-25T06:36:46.491Z,30.40
2018-04-25T06:39:12.481Z,31.40
2018-04-25T06:41:39.193Z,29.00
2018-04-25T06:44:05.283Z,29.00
2018-04-25T06:46:32.002Z,25.50
2018-04-25T06:48:57.979Z,25.30
2018-04-25T06:51:24.255Z,23.60
2018-04-25T06:53:50.225Z,22.50
2018-04-25T06:56:16.243Z,21.80
2018-04-25T06:58:42.214Z,21.20
2018-04-25T07:01:08.911Z,20.00
2018-04-25T07:03:34.875Z,20.00
2018-04-25T07:06:00.830Z,19.50
2018-04-25T07:08:27.522Z,18.90
2018-04-25T07:10:53.515Z,18.80
2018-04-25T07:13:19.469Z,18.60
2018-04-25T07:15:46.214Z,18.50
2018-04-25T07:18:13.252Z,18.50
2018-04-25T07:20:39.217Z,18.40
2018-04-25T07:23:05.910Z,18.50
2018-04-25T07:25:31.871Z,18.50
2018-04-25T07:27:57.823Z,18.60
2018-04-25T07:30:24.533Z,19.00
2018-04-25T07:32:50.511Z,19.00
2018-04-25T07:35:16.555Z,19.30
2018-04-25T07:37:43.287Z,20.60
2018-04-25T07:40:09.287Z,20.60
2018-04-25T07:42:35.254Z,21.90
2018-04-25T07:45:01.266Z,22.80
2018-04-25T07:47:27.235Z,24.50
2018-04-25T07:49:53.225Z,24.00
2018-04-25T07:52:20.032Z,22.70
2018-04-25T07:54:46.095Z,22.70
2018-04-25T07:57:12.067Z,22.20
2018-04-25T07:59:38.030Z,22.00
2018-04-25T08:02:04.014Z,21.40
2018-04-25T08:04:29.975Z,21.50
2018-04-25T08:06:55.934Z,21.60
2018-04-25T08:09:21.914Z,21.50
2018-04-25T08:11:47.902Z,21.60
2018-04-25T08:14:26.182Z,21.80
2018-04-25T08:17:04.611Z,22.00
2018-04-25T08:19:43.265Z,21.80
2018-04-25T08:22:09.219Z,21.40
2018-04-25T08:24:35.171Z,22.20
2018-04-25T08:27:01.163Z,22.20
2018-04-25T08:29:27.115Z,21.60
2018-04-25T08:31:53.066Z,21.40
2018-04-25T08:34:19.400Z,22.20
2018-04-25T08:36:45.391Z,23.10
2018-04-25T08:39:11.351Z,24.70
2018-04-25T08:41:37.335Z,24.00
2018-04-25T08:44:04.035Z,26.40
2018-04-25T08:46:30.022Z,26.40
2018-04-25T08:48:56.750Z,29.10
2018-04-25T08:51:22.698Z,29.00
2018-04-25T08:53:48.718Z,30.00
2018-04-25T08:56:14.765Z,30.10
2018-04-25T08:58:40.726Z,29.30
2018-04-25T09:01:07.422Z,27.50
2018-04-25T09:03:33.389Z,27.50
2018-04-25T09:06:00.090Z,26.40
2018-04-25T09:08:26.053Z,26.30
2018-04-25T09:10:52.063Z,25.40
2018-04-25T09:13:18.142Z,24.70
2018-04-25T09:15:44.947Z,23.60
2018-04-25T09:18:11.027Z,23.60
2018-04-25T09:20:36.975Z,23.00
2018-04-25T09:23:02.946Z,22.30
2018-04-25T09:25:28.903Z,21.90
2018-04-25T09:27:54.859Z,21.70
2018-04-25T09:30:20.828Z,21.60
2018-04-25T09:32:47.570Z,21.40
2018-04-25T09:35:15.031Z,21.10
2018-04-25T09:37:40.982Z,21.10
2018-04-25T09:40:06.959Z,21.50
2018-04-25T09:42:32.902Z,21.70
2018-04-25T09:44:58.855Z,21.70
2018-04-25T09:47:24.818Z,21.50
2018-04-25T09:49:50.775Z,21.30
2018-04-25T09:52:17.527Z,20.90
2018-04-25T09:54:44.651Z,20.50
2018-04-25T09:57:10.723Z,20.50
2018-04-25T09:59:37.427Z,20.00
2018-04-25T10:02:03.403Z,20.00
2018-04-25T10:04:30.099Z,19.60
2018-04-25T10:06:56.048Z,19.60
2018-04-25T10:09:22.026Z,19.40
2018-04-25T10:11:48.746Z,19.40
2018-04-25T10:14:14.720Z,19.40
2018-04-25T10:16:41.738Z,19.70
2018-04-25T10:19:07.958Z,19.70
2018-04-25T10:21:33.910Z,19.80
2018-04-25T10:24:00.058Z,19.90
2018-04-25T10:26:26.018Z,20.00
2018-04-25T10:28:52.074Z,20.20
2018-04-25T10:31:18.906Z,20.10
2018-04-25T10:33:45.243Z,20.10
2018-04-25T10:36:11.196Z,19.80
2018-04-25T10:38:37.897Z,19.50
2018-04-25T10:41:03.870Z,19.50
2018-04-25T10:43:29.818Z,19.40
2018-04-25T10:45:56.626Z,19.20
2018-04-25T10:48:22.578Z,19.20
2018-04-25T10:50:48.552Z,19.10
2018-04-25T10:53:15.290Z,19.10
2018-04-25T10:55:42.304Z,19.00
2018-04-25T10:58:08.263Z,18.90
2018-04-25T11:00:34.234Z,18.80
2018-04-25T11:03:00.925Z,18.80
2018-04-25T11:05:26.874Z,18.80
2018-04-25T11:07:53.019Z,19.10
2018-04-25T11:10:19.048Z,19.20
2018-04-25T11:12:45.054Z,19.60
2018-04-25T11:15:11.235Z,19.60
2018-04-25T11:17:37.303Z,19.80
2018-04-25T11:20:04.007Z,20.00
2018-04-25T11:22:37.001Z,20.00
2018-04-25T11:25:03.021Z,20.40
2018-04-25T11:27:28.970Z,20.70
2018-04-25T11:29:54.941Z,20.90
2018-04-25T11:32:20.902Z,21.20
2018-04-25T11:34:47.643Z,21.40
2018-04-25T11:37:15.092Z,21.30
2018-04-25T11:39:42.547Z,21.00
2018-04-25T11:42:08.519Z,21.00
2018-04-25T11:44:34.930Z,20.70
2018-04-25T11:47:00.882Z,20.40
2018-04-25T11:49:26.843Z,20.20
2018-04-25T11:51:52.817Z,20.00
2018-04-25T11:54:18.805Z,19.70
2018-04-25T11:56:45.578Z,20.10
2018-04-25T11:59:11.603Z,20.10
2018-04-25T12:01:38.299Z,20.90
2018-04-25T12:04:04.274Z,20.80
2018-04-25T12:06:30.244Z,20.90
2018-04-25T12:08:56.206Z,21.10
2018-04-25T12:11:22.163Z,21.50
2018-04-25T12:13:48.279Z,21.70
2018-04-25T12:16:14.304Z,21.50
2018-04-25T12:18:40.319Z,21.40
2018-04-25T12:21:06.285Z,21.20
2018-04-25T12:23:32.246Z,21.00
2018-04-25T12:25:59.030Z,21.00
2018-04-25T12:28:25.767Z,21.30
2018-04-25T12:30:51.782Z,21.30
2018-04-25T12:33:17.771Z,21.40
2018-04-25T12:35:43.824Z,21.40
2018-04-25T12:38:09.968Z,21.70
2018-04-25T12:40:35.922Z,21.90
2018-04-25T12:43:01.895Z,21.90
2018-04-25T12:45:28.591Z,21.10
2018-04-25T12:47:54.542Z,21.10
2018-04-25T12:50:20.510Z,20.90
2018-04-25T12:52:46.484Z,21.00
2018-04-25T12:55:12.859Z,20.60
2018-04-25T12:57:39.210Z,20.30
2018-04-25T13:00:05.187Z,19.90
2018-04-25T13:02:31.147Z,19.40
2018-04-25T13:04:57.319Z,19.40
2018-04-25T13:07:23.275Z,19.20
2018-04-25T13:09:49.247Z,18.80
2018-04-25T13:12:15.250Z,18.40
2018-04-25T13:14:41.966Z,18.10
2018-04-25T13:17:07.924Z,18.10
2018-04-25T13:19:34.051Z,18.30
2018-04-25T13:22:00.267Z,18.50
2018-04-25T13:24:26.225Z,18.50
2018-04-25T13:26:52.247Z,19.00
2018-04-25T13:29:18.233Z,19.40
2018-04-25T13:31:44.982Z,20.50
2018-04-25T13:34:11.911Z,20.60
2018-04-25T13:36:37.874Z,20.60
2018-04-25T13:39:04.571Z,19.90
2018-04-25T13:41:30.538Z,19.90
2018-04-25T13:43:56.502Z,19.40
2018-04-25T13:46:23.231Z,19.30
2018-04-25T13:48:49.264Z,19.30
2018-04-25T13:51:15.258Z,19.60
2018-04-25T13:53:41.516Z,19.90
2018-04-25T13:56:07.520Z,20.20
2018-04-25T13:58:33.490Z,20.40
2018-04-25T14:00:59.448Z,20.60
2018-04-25T14:03:26.218Z,20.80
2018-04-25T14:05:52.923Z,20.90
2018-04-25T14:08:18.895Z,20.80
2018-04-25T14:10:44.948Z,20.80
2018-04-25T14:13:11.646Z,20.70
2018-04-25T14:15:37.879Z,20.70
2018-04-25T14:18:03.856Z,20.60
2018-04-25T14:20:30.266Z,20.70
2018-04-25T14:22:56.226Z,20.80
2018-04-25T14:25:22.211Z,20.80
2018-04-25T14:27:48.364Z,20.70
2018-04-25T14:30:14.388Z,20.50
2018-04-25T14:32:40.351Z,20.30
2018-04-25T14:35:06.302Z,20.20
2018-04-25T14:37:32.254Z,20.00
2018-04-25T14:39:58.228Z,19.70
2018-04-25T14:42:24.177Z,19.70
2018-04-25T14:44:50.178Z,19.70
2018-04-25T14:47:17.688Z,19.90
2018-04-25T14:49:43.707Z,19.80
2018-04-25T14:52:09.659Z,20.00
2018-04-25T14:54:35.693Z,20.10
2018-04-25T14:57:02.343Z,20.40
2018-04-25T14:59:28.304Z,20.30
2018-04-25T15:01:54.656Z,20.40
2018-04-25T15:04:20.615Z,20.40
2018-04-25T15:06:46.572Z,20.40
2018-04-25T15:09:12.559Z,20.20
2018-04-25T15:11:38.514Z,20.00
2018-04-25T15:14:04.462Z,19.80
2018-04-25T15:16:31.166Z,19.50
2018-04-25T15:18:57.114Z,19.50
2018-04-25T15:21:23.103Z,19.20
2018-04-25T15:23:49.137Z,19.10
2018-04-25T15:26:15.891Z,19.00
2018-04-25T15:28:41.882Z,19.00
2018-04-25T15:31:07.832Z,19.00
2018-04-25T15:33:33.794Z,19.00
2018-04-25T15:35:59.763Z,18.90
2018-04-25T15:38:25.722Z,18.70
2018-04-25T15:40:51.673Z,18.60
2018-04-25T15:43:17.644Z,18.50
2018-04-25T15:45:43.626Z,18.70
2018-04-25T15:48:09.590Z,19.10
2018-04-25T15:50:36.307Z,19.40
2018-04-25T15:53:02.270Z,19.40
2018-04-25T15:55:28.235Z,19.50
2018-04-25T15:57:54.275Z,19.00
2018-04-25T16:00:20.570Z,18.90
2018-04-25T16:02:46.545Z,18.70
2018-04-25T16:05:12.516Z,18.80
2018-04-25T16:07:38.507Z,18.90
2018-04-25T16:10:05.214Z,19.00
2018-04-25T16:12:31.257Z,19.00
2018-04-25T16:14:57.212Z,18.90
2018-04-25T16:17:23.186Z,19.10
2018-04-25T16:19:49.163Z,18.80
2018-04-25T16:22:15.192Z,18.70
2018-04-25T16:24:41.159Z,18.50
2018-04-25T16:27:07.114Z,18.40
2018-04-25T16:29:33.863Z,18.20
2018-04-25T16:32:00.574Z,18.20
2018-04-25T16:34:26.533Z,18.20
2018-04-25T16:36:52.502Z,18.10
2018-04-25T16:39:18.529Z,18.10
2018-04-25T16:41:45.282Z,18.20
2018-04-25T16:44:11.247Z,18.10
2018-04-25T16:46:37.206Z,18.30
2018-04-25T16:49:03.172Z,18.40
2018-04-25T16:51:29.882Z,18.20
2018-04-25T16:53:55.950Z,18.20
2018-04-25T16:56:21.926Z,18.20
2018-04-25T16:58:47.915Z,18.00
2018-04-25T17:01:13.906Z,17.90
2018-04-25T17:03:39.887Z,17.80
2018-04-25T17:06:05.871Z,17.80
2018-04-25T17:08:31.819Z,17.80
2018-04-25T17:10:57.798Z,17.70
2018-04-25T17:13:23.755Z,17.60
2018-04-25T17:15:50.468Z,17.20
2018-04-25T17:18:17.193Z,17.20
2018-04-25T17:20:43.196Z,17.20
2018-04-25T17:23:09.906Z,17.10
2018-04-25T17:25:35.866Z,17.10
2018-04-25T17:28:02.137Z,17.10
2018-04-25T17:30:28.131Z,17.00
2018-04-25T17:32:54.097Z,16.90
2018-04-25T17:35:20.803Z,16.80
2018-04-25T17:37:46.779Z,16.80
2018-04-25T17:40:13.514Z,16.70
2018-04-25T17:42:39.468Z,16.70
2018-04-25T17:45:06.182Z,16.70
2018-04-25T17:47:32.138Z,16.70
2018-04-25T17:49:58.812Z,16.70
2018-04-25T17:52:24.802Z,16.80
2018-04-25T17:54:50.803Z,16.80
2018-04-25T17:57:16.856Z,16.80
2018-04-25T17:59:42.827Z,16.90
2018-04-25T18:02:09.530Z,16.70
2018-04-25T18:04:35.487Z,16.70
2018-04-25T18:07:01.463Z,16.50
2018-04-25T18:09:28.209Z,16.10
2018-04-25T18:11:54.186Z,16.10
2018-04-25T18:14:20.178Z,15.90
2018-04-25T18:16:46.214Z,15.90
2018-04-25T18:19:12.130Z,15.90
2018-04-25T18:21:38.143Z,15.80
2018-04-25T18:24:04.115Z,15.70
2018-04-25T18:26:30.087Z,15.70
2018-04-25T18:28:56.060Z,15.70
2018-04-25T18:31:22.258Z,15.70
2018-04-25T18:33:48.255Z,15.60
2018-04-25T18:36:14.439Z,15.60
2018-04-25T18:38:40.447Z,15.30
2018-04-25T18:41:07.169Z,15.20
2018-04-25T18:43:33.143Z,15.10
2018-04-25T18:45:59.867Z,15.10
2018-04-25T18:48:25.822Z,15.10
2018-04-25T18:50:51.800Z,15.00
2018-04-25T18:53:17.810Z,15.10
2018-04-25T18:55:44.848Z,14.90
2018-04-25T18:58:10.814Z,15.00
2018-04-25T19:00:36.795Z,14.90
2018-04-25T19:03:02.785Z,14.90
2018-04-25T19:05:28.735Z,14.80
2018-04-25T19:07:54.773Z,14.90
2018-04-25T19:10:20.955Z,15.00
2018-04-25T19:12:46.935Z,15.00
2018-04-25T19:15:13.302Z,15.10
2018-04-25T19:17:39.202Z,15.00
2018-04-25T19:20:05.917Z,15.00
2018-04-25T19:22:31.874Z,15.00
2018-04-25T19:24:58.600Z,14.90
2018-04-25T19:27:24.590Z,15.00
2018-04-25T19:29:50.570Z,15.10
2018-04-25T19:32:16.853Z,15.00
2018-04-25T19:34:42.814Z,15.00
2018-04-25T19:37:08.778Z,15.00
2018-04-25T19:39:34.738Z,14.90
2018-04-25T19:42:01.447Z,14.90
2018-04-25T19:44:27.418Z,14.90
2018-04-25T19:46:53.371Z,14.90
2018-04-25T19:49:20.083Z,14.80
2018-04-25T19:51:46.042Z,14.80
2018-04-25T19:54:12.012Z,14.80
2018-04-25T19:56:37.974Z,14.60
2018-04-25T19:59:03.980Z,14.40
2018-04-25T20:01:29.943Z,14.20
2018-04-25T20:03:55.916Z,14.00
2018-04-25T20:06:21.895Z,14.00
2018-04-25T20:08:47.883Z,13.90
2018-04-25T20:11:14.000Z,13.90
2018-04-25T20:13:39.989Z,13.80
2018-04-25T20:16:06.698Z,13.70
2018-04-25T20:18:32.703Z,13.60
2018-04-25T20:20:58.670Z,13.70
2018-04-25T20:23:24.807Z,13.60
2018-04-25T20:25:51.005Z,13.40
2018-04-25T20:28:17.084Z,13.20
2018-04-25T20:30:43.098Z,13.10
2018-04-25T20:33:09.095Z,12.90
2018-04-25T20:35:35.809Z,12.70
2018-04-25T20:38:01.806Z,12.70
2018-04-25T20:40:28.482Z,12.50
2018-04-25T20:42:54.861Z,12.40
2018-04-25T20:45:20.822Z,12.30
2018-04-25T20:47:47.558Z,12.20
2018-04-25T20:50:13.537Z,12.20
2018-04-25T20:52:39.490Z,12.10
2018-04-25T20:55:05.450Z,12.10
2018-04-25T20:57:31.411Z,11.90
2018-04-25T20:59:58.133Z,12.20
2018-04-25T21:02:24.181Z,12.20
2018-04-25T21:04:50.279Z,12.00
2018-04-25T21:07:17.039Z,11.50
2018-04-25T21:09:43.068Z,11.50
2018-04-25T21:12:09.078Z,11.30
2018-04-25T21:14:35.054Z,11.30
2018-04-25T21:17:01.025Z,11.30
2018-04-25T21:19:28.516Z,11.30
2018-04-25T21:21:54.990Z,11.50
2018-04-25T21:24:22.047Z,11.70
2018-04-25T21:26:48.108Z,11.80
2018-04-25T21:29:14.152Z,12.00
2018-04-25T21:31:40.124Z,12.10
2018-04-25T21:34:07.594Z,11.80
2018-04-25T21:36:35.031Z,11.60
2018-04-25T21:39:00.994Z,11.70
2018-04-25T21:41:28.432Z,11.40
2018-04-25T21:43:54.403Z,11.40
2018-04-25T21:46:21.115Z,11.10
2018-04-25T21:48:47.110Z,11.10
2018-04-25T21:51:13.890Z,11.00
2018-04-25T21:53:39.819Z,11.00
2018-04-25T21:56:05.775Z,11.00
2018-04-25T21:58:31.726Z,10.90
2018-04-25T22:00:57.951Z,10.80
2018-04-25T22:03:23.906Z,10.80
2018-04-25T22:05:49.879Z,10.80
2018-04-25T22:08:16.591Z,10.80
2018-04-25T22:10:42.554Z,10.80
2018-04-25T22:13:08.518Z,10.80
2018-04-25T22:15:41.391Z,10.70
2018-04-25T22:18:08.105Z,10.70
2018-04-25T22:20:34.071Z,10.60
2018-04-25T22:23:00.051Z,10.70
2018-04-25T22:25:26.003Z,10.70
2018-04-25T22:27:51.966Z,10.80
2018-04-25T22:30:17.950Z,10.80
2018-04-25T22:32:44.227Z,10.80
2018-04-25T22:35:10.215Z,10.80
2018-04-25T22:37:36.923Z,11.00
2018-04-25T22:40:02.889Z,11.00
2018-04-25T22:42:29.606Z,11.00
2018-04-25T22:44:55.567Z,11.00
2018-04-25T22:47:22.271Z,10.90
2018-04-25T22:49:48.315Z,10.80
2018-04-25T22:52:14.235Z,10.80
2018-04-25T22:54:40.206Z,10.70
2018-04-25T22:57:06.192Z,10.70
2018-04-25T22:59:32.151Z,10.60
2018-04-25T23:01:58.121Z,10.60
2018-04-25T23:04:24.071Z,10.70
2018-04-25T23:06:50.778Z,10.40
2018-04-25T23:09:16.768Z,10.40
2018-04-25T23:11:42.748Z,10.30
2018-04-25T23:14:08.707Z,10.30
2018-04-25T23:16:34.683Z,10.10
2018-04-25T23:19:01.380Z,10.80
2018-04-25T23:21:27.355Z,10.80
2018-04-25T23:23:54.059Z,10.80
2018-04-25T23:26:20.019Z,10.80
2018-04-25T23:28:46.017Z,10.90
2018-04-25T23:31:11.974Z,10.90
2018-04-25T23:33:38.467Z,10.80
2018-04-25T23:36:05.165Z,10.60
2018-04-25T23:38:31.116Z,10.60
2018-04-25T23:40:57.339Z,10.50
2018-04-25T23:43:23.302Z,10.50
2018-04-25T23:45:49.322Z,10.50
2018-04-25T23:48:15.279Z,10.50
2018-04-25T23:50:41.979Z,10.50
2018-04-25T23:53:07.943Z,10.40
2018-04-25T23:55:33.907Z,10.30
2018-04-25T23:57:59.859Z,10.10
